sensor_id;sensor_type;location;lat;lon;timestamp;temperature;humidity
25450;DHT22;13371;52.080;5.624;2022-07-30T00:01:23;21.10;86.90
25450;DHT22;13371;52.080;5.624;2022-07-30T00:03:48;21.10;87.30
25450;DHT22;13371;52.080;5.624;2022-07-30T00:06:14;21.10;87.80
25450;DHT22;13371;52.080;5.624;2022-07-30T00:08:39;21.00;88.40
25450;DHT22;13371;52.080;5.624;2022-07-30T00:11:05;21.00;88.40
25450;DHT22;13371;52.080;5.624;2022-07-30T00:13:30;20.90;88.50
25450;DHT22;13371;52.080;5.624;2022-07-30T00:15:56;20.90;88.50
25450;DHT22;13371;52.080;5.624;2022-07-30T00:18:21;21.00;88.80
25450;DHT22;13371;52.080;5.624;2022-07-30T00:20:48;20.90;88.80
25450;DHT22;13371;52.080;5.624;2022-07-30T00:23:13;20.80;88.90
25450;DHT22;13371;52.080;5.624;2022-07-30T00:25:39;20.70;89.10
25450;DHT22;13371;52.080;5.624;2022-07-30T00:28:05;20.80;89.40
25450;DHT22;13371;52.080;5.624;2022-07-30T00:30:30;20.70;88.90
25450;DHT22;13371;52.080;5.624;2022-07-30T00:32:56;20.70;89.30
25450;DHT22;13371;52.080;5.624;2022-07-30T00:35:21;20.70;89.40
25450;DHT22;13371;52.080;5.624;2022-07-30T00:37:47;20.70;89.60
25450;DHT22;13371;52.080;5.624;2022-07-30T00:40:13;20.60;89.70
25450;DHT22;13371;52.080;5.624;2022-07-30T00:42:41;20.60;89.60
25450;DHT22;13371;52.080;5.624;2022-07-30T00:45:07;20.70;89.40
25450;DHT22;13371;52.080;5.624;2022-07-30T00:47:33;20.70;89.30
25450;DHT22;13371;52.080;5.624;2022-07-30T00:49:59;20.60;89.80
25450;DHT22;13371;52.080;5.624;2022-07-30T00:52:31;20.60;90.00
25450;DHT22;13371;52.080;5.624;2022-07-30T00:54:57;20.50;90.00
25450;DHT22;13371;52.080;5.624;2022-07-30T00:57:23;20.50;90.30
25450;DHT22;13371;52.080;5.624;2022-07-30T00:59:49;20.30;90.60
25450;DHT22;13371;52.080;5.624;2022-07-30T01:02:14;20.20;91.10
25450;DHT22;13371;52.080;5.624;2022-07-30T01:04:40;20.20;90.90
25450;DHT22;13371;52.080;5.624;2022-07-30T01:07:06;20.30;90.50
25450;DHT22;13371;52.080;5.624;2022-07-30T01:09:31;20.20;90.70
25450;DHT22;13371;52.080;5.624;2022-07-30T01:11:57;20.20;90.70
25450;DHT22;13371;52.080;5.624;2022-07-30T01:14:23;20.30;90.60
25450;DHT22;13371;52.080;5.624;2022-07-30T01:16:48;20.30;90.50
25450;DHT22;13371;52.080;5.624;2022-07-30T01:19:24;20.40;90.40
25450;DHT22;13371;52.080;5.624;2022-07-30T01:25:03;20.20;90.50
25450;DHT22;13371;52.080;5.624;2022-07-30T01:27:35;20.30;90.70
25450;DHT22;13371;52.080;5.624;2022-07-30T01:30:04;20.20;90.70
25450;DHT22;13371;52.080;5.624;2022-07-30T01:32:32;20.10;90.90
25450;DHT22;13371;52.080;5.624;2022-07-30T01:35:00;19.90;91.30
25450;DHT22;13371;52.080;5.624;2022-07-30T01:37:27;19.90;91.40
25450;DHT22;13371;52.080;5.624;2022-07-30T01:39:53;19.90;91.20
25450;DHT22;13371;52.080;5.624;2022-07-30T01:42:20;20.00;91.10
25450;DHT22;13371;52.080;5.624;2022-07-30T01:44:48;20.00;91.10
25450;DHT22;13371;52.080;5.624;2022-07-30T01:47:15;19.90;91.20
25450;DHT22;13371;52.080;5.624;2022-07-30T01:49:43;19.90;91.20
25450;DHT22;13371;52.080;5.624;2022-07-30T01:52:11;19.90;91.20
25450;DHT22;13371;52.080;5.624;2022-07-30T01:54:37;19.90;91.10
25450;DHT22;13371;52.080;5.624;2022-07-30T01:57:04;19.90;91.20
25450;DHT22;13371;52.080;5.624;2022-07-30T01:59:32;20.00;91.00
25450;DHT22;13371;52.080;5.624;2022-07-30T02:01:59;19.90;91.10
25450;DHT22;13371;52.080;5.624;2022-07-30T02:04:24;19.90;91.00
25450;DHT22;13371;52.080;5.624;2022-07-30T02:06:58;19.50;91.20
25450;DHT22;13371;52.080;5.624;2022-07-30T02:09:30;19.60;91.50
25450;DHT22;13371;52.080;5.624;2022-07-30T02:11:59;19.60;91.50
25450;DHT22;13371;52.080;5.624;2022-07-30T02:14:48;19.50;91.90
25450;DHT22;13371;52.080;5.624;2022-07-30T02:17:22;19.50;91.80
25450;DHT22;13371;52.080;5.624;2022-07-30T02:19:50;19.50;92.10
25450;DHT22;13371;52.080;5.624;2022-07-30T02:22:17;19.50;91.90
25450;DHT22;13371;52.080;5.624;2022-07-30T02:24:45;19.60;92.10
25450;DHT22;13371;52.080;5.624;2022-07-30T02:27:16;19.70;92.00
25450;DHT22;13371;52.080;5.624;2022-07-30T02:29:43;19.80;91.80
25450;DHT22;13371;52.080;5.624;2022-07-30T02:32:12;19.90;91.80
25450;DHT22;13371;52.080;5.624;2022-07-30T02:34:40;19.80;91.60
25450;DHT22;13371;52.080;5.624;2022-07-30T02:37:09;19.90;91.90
25450;DHT22;13371;52.080;5.624;2022-07-30T02:39:36;19.60;91.80
25450;DHT22;13371;52.080;5.624;2022-07-30T02:42:03;19.70;92.00
25450;DHT22;13371;52.080;5.624;2022-07-30T02:44:31;19.70;91.90
25450;DHT22;13371;52.080;5.624;2022-07-30T02:46:58;19.90;92.10
25450;DHT22;13371;52.080;5.624;2022-07-30T02:49:24;19.90;92.00
25450;DHT22;13371;52.080;5.624;2022-07-30T02:51:51;19.90;92.10
25450;DHT22;13371;52.080;5.624;2022-07-30T02:54:18;20.00;92.00
25450;DHT22;13371;52.080;5.624;2022-07-30T02:56:45;20.10;91.90
25450;DHT22;13371;52.080;5.624;2022-07-30T02:59:13;20.10;91.80
25450;DHT22;13371;52.080;5.624;2022-07-30T03:01:40;20.00;91.80
25450;DHT22;13371;52.080;5.624;2022-07-30T03:04:07;19.90;91.60
25450;DHT22;13371;52.080;5.624;2022-07-30T03:06:34;20.00;91.30
25450;DHT22;13371;52.080;5.624;2022-07-30T03:09:02;19.90;91.50
25450;DHT22;13371;52.080;5.624;2022-07-30T03:11:29;20.00;91.20
25450;DHT22;13371;52.080;5.624;2022-07-30T03:13:56;19.70;91.40
25450;DHT22;13371;52.080;5.624;2022-07-30T03:16:23;19.80;91.50
25450;DHT22;13371;52.080;5.624;2022-07-30T03:18:52;19.90;91.20
25450;DHT22;13371;52.080;5.624;2022-07-30T03:21:19;20.00;91.00
25450;DHT22;13371;52.080;5.624;2022-07-30T03:23:46;20.00;91.00
25450;DHT22;13371;52.080;5.624;2022-07-30T03:26:15;19.80;91.20
25450;DHT22;13371;52.080;5.624;2022-07-30T03:28:45;20.00;90.90
25450;DHT22;13371;52.080;5.624;2022-07-30T03:31:12;19.80;91.00
25450;DHT22;13371;52.080;5.624;2022-07-30T03:33:39;19.70;91.20
25450;DHT22;13371;52.080;5.624;2022-07-30T03:36:06;19.60;91.00
25450;DHT22;13371;52.080;5.624;2022-07-30T03:38:34;19.60;91.30
25450;DHT22;13371;52.080;5.624;2022-07-30T03:41:01;19.60;91.00
25450;DHT22;13371;52.080;5.624;2022-07-30T03:43:26;19.50;91.00
25450;DHT22;13371;52.080;5.624;2022-07-30T03:45:52;19.50;91.20
25450;DHT22;13371;52.080;5.624;2022-07-30T03:48:19;19.60;91.00
25450;DHT22;13371;52.080;5.624;2022-07-30T03:50:45;19.50;91.00
25450;DHT22;13371;52.080;5.624;2022-07-30T03:53:12;19.60;90.90
25450;DHT22;13371;52.080;5.624;2022-07-30T03:55:37;19.50;90.90
25450;DHT22;13371;52.080;5.624;2022-07-30T03:58:05;19.40;91.50
25450;DHT22;13371;52.080;5.624;2022-07-30T04:00:31;19.50;91.00
25450;DHT22;13371;52.080;5.624;2022-07-30T04:02:57;19.50;90.90
25450;DHT22;13371;52.080;5.624;2022-07-30T04:05:23;19.50;90.90
25450;DHT22;13371;52.080;5.624;2022-07-30T04:07:48;19.30;90.80
25450;DHT22;13371;52.080;5.624;2022-07-30T04:10:14;19.30;91.00
25450;DHT22;13371;52.080;5.624;2022-07-30T04:12:41;19.40;90.70
25450;DHT22;13371;52.080;5.624;2022-07-30T04:15:07;19.30;90.50
25450;DHT22;13371;52.080;5.624;2022-07-30T04:17:48;19.30;90.60
25450;DHT22;13371;52.080;5.624;2022-07-30T04:20:26;19.20;90.40
25450;DHT22;13371;52.080;5.624;2022-07-30T04:22:52;19.10;90.40
25450;DHT22;13371;52.080;5.624;2022-07-30T04:25:19;19.10;90.50
25450;DHT22;13371;52.080;5.624;2022-07-30T04:27:46;19.20;90.40
25450;DHT22;13371;52.080;5.624;2022-07-30T04:30:12;19.10;90.50
25450;DHT22;13371;52.080;5.624;2022-07-30T04:32:38;19.10;90.80
25450;DHT22;13371;52.080;5.624;2022-07-30T04:35:04;19.10;90.70
25450;DHT22;13371;52.080;5.624;2022-07-30T04:37:30;19.10;90.90
25450;DHT22;13371;52.080;5.624;2022-07-30T04:39:56;19.00;91.10
25450;DHT22;13371;52.080;5.624;2022-07-30T04:42:26;19.10;91.00
25450;DHT22;13371;52.080;5.624;2022-07-30T04:44:53;19.00;91.20
25450;DHT22;13371;52.080;5.624;2022-07-30T04:47:19;19.00;91.40
25450;DHT22;13371;52.080;5.624;2022-07-30T04:49:46;18.80;91.60
25450;DHT22;13371;52.080;5.624;2022-07-30T04:52:13;18.80;91.70
25450;DHT22;13371;52.080;5.624;2022-07-30T04:54:45;19.00;91.40
25450;DHT22;13371;52.080;5.624;2022-07-30T04:57:14;19.10;91.40
25450;DHT22;13371;52.080;5.624;2022-07-30T04:59:41;19.20;91.20
25450;DHT22;13371;52.080;5.624;2022-07-30T05:02:07;19.00;91.20
25450;DHT22;13371;52.080;5.624;2022-07-30T05:04:33;19.00;91.50
25450;DHT22;13371;52.080;5.624;2022-07-30T05:07:00;19.10;91.40
25450;DHT22;13371;52.080;5.624;2022-07-30T05:09:27;18.90;91.70
25450;DHT22;13371;52.080;5.624;2022-07-30T05:11:54;18.70;92.10
25450;DHT22;13371;52.080;5.624;2022-07-30T05:14:21;18.80;92.10
25450;DHT22;13371;52.080;5.624;2022-07-30T05:16:47;18.80;92.20
25450;DHT22;13371;52.080;5.624;2022-07-30T05:19:13;18.80;92.20
25450;DHT22;13371;52.080;5.624;2022-07-30T05:21:38;18.90;92.10
25450;DHT22;13371;52.080;5.624;2022-07-30T05:24:04;19.10;91.80
25450;DHT22;13371;52.080;5.624;2022-07-30T05:26:30;19.10;91.80
25450;DHT22;13371;52.080;5.624;2022-07-30T05:28:56;19.10;92.00
25450;DHT22;13371;52.080;5.624;2022-07-30T05:31:21;19.10;92.20
25450;DHT22;13371;52.080;5.624;2022-07-30T05:33:47;18.70;92.80
25450;DHT22;13371;52.080;5.624;2022-07-30T05:36:12;18.90;92.60
25450;DHT22;13371;52.080;5.624;2022-07-30T05:38:38;19.10;92.40
25450;DHT22;13371;52.080;5.624;2022-07-30T05:41:03;19.20;92.40
25450;DHT22;13371;52.080;5.624;2022-07-30T05:43:29;19.30;92.20
25450;DHT22;13371;52.080;5.624;2022-07-30T05:45:54;19.20;92.40
25450;DHT22;13371;52.080;5.624;2022-07-30T05:48:20;19.10;92.50
25450;DHT22;13371;52.080;5.624;2022-07-30T05:50:45;19.10;92.80
25450;DHT22;13371;52.080;5.624;2022-07-30T05:53:11;19.10;92.50
25450;DHT22;13371;52.080;5.624;2022-07-30T05:55:36;19.10;92.80
25450;DHT22;13371;52.080;5.624;2022-07-30T05:58:02;19.10;93.10
25450;DHT22;13371;52.080;5.624;2022-07-30T06:00:28;19.10;92.80
25450;DHT22;13371;52.080;5.624;2022-07-30T06:02:53;19.10;93.20
25450;DHT22;13371;52.080;5.624;2022-07-30T06:05:19;19.10;93.40
25450;DHT22;13371;52.080;5.624;2022-07-30T06:07:45;19.40;93.00
25450;DHT22;13371;52.080;5.624;2022-07-30T06:10:10;19.50;92.80
25450;DHT22;13371;52.080;5.624;2022-07-30T06:12:36;19.60;92.90
25450;DHT22;13371;52.080;5.624;2022-07-30T06:15:02;19.60;92.60
25450;DHT22;13371;52.080;5.624;2022-07-30T06:17:28;19.60;92.40
25450;DHT22;13371;52.080;5.624;2022-07-30T06:19:53;19.70;92.60
25450;DHT22;13371;52.080;5.624;2022-07-30T06:22:19;19.90;92.80
25450;DHT22;13371;52.080;5.624;2022-07-30T06:24:45;19.90;92.60
25450;DHT22;13371;52.080;5.624;2022-07-30T06:27:10;20.00;92.20
25450;DHT22;13371;52.080;5.624;2022-07-30T06:29:36;20.10;92.40
25450;DHT22;13371;52.080;5.624;2022-07-30T06:32:02;20.30;92.40
25450;DHT22;13371;52.080;5.624;2022-07-30T06:34:27;20.40;92.00
25450;DHT22;13371;52.080;5.624;2022-07-30T06:36:53;20.50;91.70
25450;DHT22;13371;52.080;5.624;2022-07-30T06:39:18;20.60;91.80
25450;DHT22;13371;52.080;5.624;2022-07-30T06:41:44;20.30;91.70
25450;DHT22;13371;52.080;5.624;2022-07-30T06:44:09;20.60;91.90
25450;DHT22;13371;52.080;5.624;2022-07-30T06:46:35;20.70;92.00
25450;DHT22;13371;52.080;5.624;2022-07-30T06:49:02;20.80;91.30
25450;DHT22;13371;52.080;5.624;2022-07-30T06:51:27;20.90;91.30
25450;DHT22;13371;52.080;5.624;2022-07-30T06:53:53;21.20;91.00
25450;DHT22;13371;52.080;5.624;2022-07-30T06:56:18;21.40;90.80
25450;DHT22;13371;52.080;5.624;2022-07-30T06:58:44;21.30;90.90
25450;DHT22;13371;52.080;5.624;2022-07-30T07:01:09;21.20;91.20
25450;DHT22;13371;52.080;5.624;2022-07-30T07:03:35;21.20;90.90
25450;DHT22;13371;52.080;5.624;2022-07-30T07:06:00;21.30;91.10
25450;DHT22;13371;52.080;5.624;2022-07-30T07:08:26;21.50;90.40
25450;DHT22;13371;52.080;5.624;2022-07-30T07:10:51;21.40;90.00
25450;DHT22;13371;52.080;5.624;2022-07-30T07:13:17;21.30;89.00
25450;DHT22;13371;52.080;5.624;2022-07-30T07:15:43;21.30;89.50
25450;DHT22;13371;52.080;5.624;2022-07-30T07:18:09;21.60;88.10
25450;DHT22;13371;52.080;5.624;2022-07-30T07:20:36;21.60;88.20
25450;DHT22;13371;52.080;5.624;2022-07-30T07:23:02;21.60;87.30
25450;DHT22;13371;52.080;5.624;2022-07-30T07:25:28;21.80;88.30
25450;DHT22;13371;52.080;5.624;2022-07-30T07:27:53;21.80;87.40
25450;DHT22;13371;52.080;5.624;2022-07-30T07:30:19;22.00;85.90
25450;DHT22;13371;52.080;5.624;2022-07-30T07:32:44;22.10;85.30
25450;DHT22;13371;52.080;5.624;2022-07-30T07:35:10;22.20;84.90
25450;DHT22;13371;52.080;5.624;2022-07-30T07:37:38;22.40;84.90
25450;DHT22;13371;52.080;5.624;2022-07-30T07:40:04;22.70;84.10
25450;DHT22;13371;52.080;5.624;2022-07-30T07:42:30;22.70;83.10
25450;DHT22;13371;52.080;5.624;2022-07-30T07:44:55;22.70;81.80
25450;DHT22;13371;52.080;5.624;2022-07-30T07:47:21;22.90;83.10
25450;DHT22;13371;52.080;5.624;2022-07-30T07:49:46;23.00;80.30
25450;DHT22;13371;52.080;5.624;2022-07-30T07:52:12;23.00;79.60
25450;DHT22;13371;52.080;5.624;2022-07-30T07:54:38;23.10;80.30
25450;DHT22;13371;52.080;5.624;2022-07-30T07:57:03;23.10;80.60
25450;DHT22;13371;52.080;5.624;2022-07-30T07:59:32;23.30;82.00
25450;DHT22;13371;52.080;5.624;2022-07-30T08:01:58;23.40;79.50
25450;DHT22;13371;52.080;5.624;2022-07-30T08:04:23;23.50;78.70
25450;DHT22;13371;52.080;5.624;2022-07-30T08:06:49;23.50;77.10
25450;DHT22;13371;52.080;5.624;2022-07-30T08:09:15;23.50;77.60
25450;DHT22;13371;52.080;5.624;2022-07-30T08:11:40;23.50;78.10
25450;DHT22;13371;52.080;5.624;2022-07-30T08:14:06;23.60;78.00
25450;DHT22;13371;52.080;5.624;2022-07-30T08:16:31;23.80;77.20
25450;DHT22;13371;52.080;5.624;2022-07-30T08:18:57;23.70;77.20
25450;DHT22;13371;52.080;5.624;2022-07-30T08:21:22;23.80;74.30
25450;DHT22;13371;52.080;5.624;2022-07-30T08:23:48;23.30;76.00
25450;DHT22;13371;52.080;5.624;2022-07-30T08:26:14;23.50;76.10
25450;DHT22;13371;52.080;5.624;2022-07-30T08:28:40;23.80;76.50
25450;DHT22;13371;52.080;5.624;2022-07-30T08:31:07;23.30;74.90
25450;DHT22;13371;52.080;5.624;2022-07-30T08:33:33;23.70;76.80
25450;DHT22;13371;52.080;5.624;2022-07-30T08:35:59;23.80;77.70
25450;DHT22;13371;52.080;5.624;2022-07-30T08:38:25;24.10;74.50
25450;DHT22;13371;52.080;5.624;2022-07-30T08:40:54;24.40;73.50
25450;DHT22;13371;52.080;5.624;2022-07-30T08:43:19;24.30;72.60
25450;DHT22;13371;52.080;5.624;2022-07-30T08:45:45;24.30;73.00
25450;DHT22;13371;52.080;5.624;2022-07-30T08:48:13;24.50;72.70
25450;DHT22;13371;52.080;5.624;2022-07-30T08:50:39;24.50;71.70
25450;DHT22;13371;52.080;5.624;2022-07-30T08:53:05;24.60;73.50
25450;DHT22;13371;52.080;5.624;2022-07-30T08:55:31;24.60;73.60
25450;DHT22;13371;52.080;5.624;2022-07-30T08:57:57;24.40;70.90
25450;DHT22;13371;52.080;5.624;2022-07-30T09:00:23;24.60;70.20
25450;DHT22;13371;52.080;5.624;2022-07-30T09:02:48;24.70;71.40
25450;DHT22;13371;52.080;5.624;2022-07-30T09:05:14;24.90;69.10
25450;DHT22;13371;52.080;5.624;2022-07-30T09:07:39;24.90;69.60
25450;DHT22;13371;52.080;5.624;2022-07-30T09:10:07;25.40;69.30
25450;DHT22;13371;52.080;5.624;2022-07-30T09:12:44;25.70;70.60
25450;DHT22;13371;52.080;5.624;2022-07-30T09:15:13;25.60;67.90
25450;DHT22;13371;52.080;5.624;2022-07-30T09:18:00;25.90;68.20
25450;DHT22;13371;52.080;5.624;2022-07-30T09:20:33;26.10;69.50
25450;DHT22;13371;52.080;5.624;2022-07-30T09:23:01;26.20;66.10
25450;DHT22;13371;52.080;5.624;2022-07-30T09:25:36;26.00;68.40
25450;DHT22;13371;52.080;5.624;2022-07-30T09:28:03;26.10;68.40
25450;DHT22;13371;52.080;5.624;2022-07-30T09:30:47;26.00;67.40
25450;DHT22;13371;52.080;5.624;2022-07-30T09:33:14;26.20;64.90
25450;DHT22;13371;52.080;5.624;2022-07-30T09:35:41;26.40;64.60
25450;DHT22;13371;52.080;5.624;2022-07-30T09:38:07;26.60;63.60
25450;DHT22;13371;52.080;5.624;2022-07-30T09:40:33;26.40;63.30
25450;DHT22;13371;52.080;5.624;2022-07-30T09:43:08;26.70;64.00
25450;DHT22;13371;52.080;5.624;2022-07-30T09:45:34;26.50;61.00
25450;DHT22;13371;52.080;5.624;2022-07-30T09:48:01;26.40;64.90
25450;DHT22;13371;52.080;5.624;2022-07-30T09:50:27;26.60;65.10
25450;DHT22;13371;52.080;5.624;2022-07-30T09:52:54;26.70;60.60
25450;DHT22;13371;52.080;5.624;2022-07-30T09:55:40;26.80;65.70
25450;DHT22;13371;52.080;5.624;2022-07-30T09:58:06;26.80;63.50
25450;DHT22;13371;52.080;5.624;2022-07-30T10:00:34;27.10;63.00
25450;DHT22;13371;52.080;5.624;2022-07-30T10:03:00;27.30;62.60
25450;DHT22;13371;52.080;5.624;2022-07-30T10:05:28;27.40;63.70
25450;DHT22;13371;52.080;5.624;2022-07-30T10:07:58;27.70;63.40
25450;DHT22;13371;52.080;5.624;2022-07-30T10:10:26;27.70;62.20
25450;DHT22;13371;52.080;5.624;2022-07-30T10:13:03;27.90;60.60
25450;DHT22;13371;52.080;5.624;2022-07-30T10:15:33;27.60;59.40
25450;DHT22;13371;52.080;5.624;2022-07-30T10:18:00;27.60;60.20
25450;DHT22;13371;52.080;5.624;2022-07-30T10:20:28;27.90;61.10
25450;DHT22;13371;52.080;5.624;2022-07-30T10:22:54;27.50;61.20
25450;DHT22;13371;52.080;5.624;2022-07-30T10:25:24;28.00;59.90
25450;DHT22;13371;52.080;5.624;2022-07-30T10:27:50;28.10;60.60
25450;DHT22;13371;52.080;5.624;2022-07-30T10:30:16;28.30;59.60
25450;DHT22;13371;52.080;5.624;2022-07-30T10:32:43;28.40;59.80
25450;DHT22;13371;52.080;5.624;2022-07-30T10:35:09;28.30;59.50
25450;DHT22;13371;52.080;5.624;2022-07-30T10:37:47;28.30;61.40
25450;DHT22;13371;52.080;5.624;2022-07-30T10:43:14;28.60;59.50
25450;DHT22;13371;52.080;5.624;2022-07-30T10:48:34;28.60;59.80
25450;DHT22;13371;52.080;5.624;2022-07-30T10:51:00;28.30;61.30
25450;DHT22;13371;52.080;5.624;2022-07-30T10:58:56;29.10;60.00
25450;DHT22;13371;52.080;5.624;2022-07-30T11:01:22;29.40;59.60
25450;DHT22;13371;52.080;5.624;2022-07-30T11:06:41;29.70;59.70
25450;DHT22;13371;52.080;5.624;2022-07-30T11:09:36;29.20;58.00
25450;DHT22;13371;52.080;5.624;2022-07-30T11:12:03;29.40;59.70
25450;DHT22;13371;52.080;5.624;2022-07-30T11:17:11;29.70;58.20
25450;DHT22;13371;52.080;5.624;2022-07-30T11:20:08;29.80;59.30
25450;DHT22;13371;52.080;5.624;2022-07-30T11:22:38;29.80;58.10
25450;DHT22;13371;52.080;5.624;2022-07-30T11:25:06;30.00;58.30
25450;DHT22;13371;52.080;5.624;2022-07-30T11:30:30;29.70;57.10
25450;DHT22;13371;52.080;5.624;2022-07-30T11:35:41;29.20;58.60
25450;DHT22;13371;52.080;5.624;2022-07-30T11:38:12;29.20;59.60
25450;DHT22;13371;52.080;5.624;2022-07-30T11:43:28;29.40;57.80
25450;DHT22;13371;52.080;5.624;2022-07-30T11:46:18;29.60;58.70
25450;DHT22;13371;52.080;5.624;2022-07-30T11:48:55;29.70;56.30
25450;DHT22;13371;52.080;5.624;2022-07-30T11:51:22;29.80;57.30
25450;DHT22;13371;52.080;5.624;2022-07-30T11:54:17;29.80;57.40
25450;DHT22;13371;52.080;5.624;2022-07-30T11:56:52;29.90;58.30
25450;DHT22;13371;52.080;5.624;2022-07-30T11:59:21;30.10;57.60
25450;DHT22;13371;52.080;5.624;2022-07-30T12:01:51;30.30;57.20
25450;DHT22;13371;52.080;5.624;2022-07-30T12:04:18;30.10;58.10
25450;DHT22;13371;52.080;5.624;2022-07-30T12:06:45;30.40;56.50
25450;DHT22;13371;52.080;5.624;2022-07-30T12:09:11;30.40;56.50
25450;DHT22;13371;52.080;5.624;2022-07-30T12:11:36;30.20;56.00
25450;DHT22;13371;52.080;5.624;2022-07-30T12:14:03;30.10;55.30
25450;DHT22;13371;52.080;5.624;2022-07-30T12:16:30;29.60;56.30
25450;DHT22;13371;52.080;5.624;2022-07-30T12:19:06;29.40;56.20
25450;DHT22;13371;52.080;5.624;2022-07-30T12:21:32;29.80;58.10
25450;DHT22;13371;52.080;5.624;2022-07-30T12:24:01;30.10;56.80
25450;DHT22;13371;52.080;5.624;2022-07-30T12:26:29;30.10;56.70
25450;DHT22;13371;52.080;5.624;2022-07-30T12:29:00;30.20;57.30
25450;DHT22;13371;52.080;5.624;2022-07-30T12:31:27;30.10;55.90
25450;DHT22;13371;52.080;5.624;2022-07-30T12:33:52;30.00;56.70
25450;DHT22;13371;52.080;5.624;2022-07-30T12:36:34;29.90;55.80
25450;DHT22;13371;52.080;5.624;2022-07-30T12:39:01;30.00;56.30
25450;DHT22;13371;52.080;5.624;2022-07-30T12:41:44;29.70;55.10
25450;DHT22;13371;52.080;5.624;2022-07-30T12:44:10;29.50;56.30
25450;DHT22;13371;52.080;5.624;2022-07-30T12:46:55;29.10;57.40
25450;DHT22;13371;52.080;5.624;2022-07-30T12:49:27;29.40;57.10
25450;DHT22;13371;52.080;5.624;2022-07-30T12:51:53;29.70;57.40
25450;DHT22;13371;52.080;5.624;2022-07-30T12:54:19;29.50;57.60
25450;DHT22;13371;52.080;5.624;2022-07-30T12:59:23;30.00;56.30
25450;DHT22;13371;52.080;5.624;2022-07-30T13:01:50;30.20;56.50
25450;DHT22;13371;52.080;5.624;2022-07-30T13:04:16;30.10;55.80
25450;DHT22;13371;52.080;5.624;2022-07-30T13:06:42;29.70;56.30
25450;DHT22;13371;52.080;5.624;2022-07-30T13:09:20;29.90;57.20
25450;DHT22;13371;52.080;5.624;2022-07-30T13:11:46;29.70;54.80
25450;DHT22;13371;52.080;5.624;2022-07-30T13:14:12;29.70;55.90
25450;DHT22;13371;52.080;5.624;2022-07-30T13:16:40;29.50;56.50
25450;DHT22;13371;52.080;5.624;2022-07-30T13:19:09;29.40;56.00
25450;DHT22;13371;52.080;5.624;2022-07-30T13:21:36;29.40;55.60
25450;DHT22;13371;52.080;5.624;2022-07-30T13:24:02;29.30;56.70
25450;DHT22;13371;52.080;5.624;2022-07-30T13:26:28;29.40;57.10
25450;DHT22;13371;52.080;5.624;2022-07-30T13:28:55;29.50;57.20
25450;DHT22;13371;52.080;5.624;2022-07-30T13:31:21;29.30;56.00
25450;DHT22;13371;52.080;5.624;2022-07-30T13:33:47;29.20;56.70
25450;DHT22;13371;52.080;5.624;2022-07-30T13:36:14;29.30;56.20
25450;DHT22;13371;52.080;5.624;2022-07-30T13:38:39;29.50;58.20
25450;DHT22;13371;52.080;5.624;2022-07-30T13:41:05;29.80;56.80
25450;DHT22;13371;52.080;5.624;2022-07-30T13:43:31;29.80;56.80
25450;DHT22;13371;52.080;5.624;2022-07-30T13:45:57;29.70;56.00
25450;DHT22;13371;52.080;5.624;2022-07-30T13:48:22;30.00;56.10
25450;DHT22;13371;52.080;5.624;2022-07-30T13:50:48;30.20;56.20
25450;DHT22;13371;52.080;5.624;2022-07-30T13:53:14;30.40;56.50
25450;DHT22;13371;52.080;5.624;2022-07-30T13:55:40;30.30;54.50
25450;DHT22;13371;52.080;5.624;2022-07-30T13:58:07;30.30;54.20
25450;DHT22;13371;52.080;5.624;2022-07-30T14:00:34;30.30;55.30
25450;DHT22;13371;52.080;5.624;2022-07-30T14:03:06;29.90;53.90
25450;DHT22;13371;52.080;5.624;2022-07-30T14:05:31;30.10;55.30
25450;DHT22;13371;52.080;5.624;2022-07-30T14:07:58;30.10;54.60
25450;DHT22;13371;52.080;5.624;2022-07-30T14:10:24;29.80;55.80
25450;DHT22;13371;52.080;5.624;2022-07-30T14:12:51;30.10;56.40
25450;DHT22;13371;52.080;5.624;2022-07-30T14:15:24;30.10;54.10
25450;DHT22;13371;52.080;5.624;2022-07-30T14:17:50;30.20;55.90
25450;DHT22;13371;52.080;5.624;2022-07-30T14:20:17;30.00;54.50
25450;DHT22;13371;52.080;5.624;2022-07-30T14:22:43;30.00;55.30
25450;DHT22;13371;52.080;5.624;2022-07-30T14:25:09;29.80;54.00
25450;DHT22;13371;52.080;5.624;2022-07-30T14:27:35;29.80;56.20
25450;DHT22;13371;52.080;5.624;2022-07-30T14:30:02;30.00;54.40
25450;DHT22;13371;52.080;5.624;2022-07-30T14:32:28;29.60;55.30
25450;DHT22;13371;52.080;5.624;2022-07-30T14:34:54;29.60;55.20
25450;DHT22;13371;52.080;5.624;2022-07-30T14:37:19;29.80;58.10
25450;DHT22;13371;52.080;5.624;2022-07-30T14:39:45;29.90;54.90
25450;DHT22;13371;52.080;5.624;2022-07-30T14:42:11;29.50;53.80
25450;DHT22;13371;52.080;5.624;2022-07-30T14:44:37;29.60;55.60
25450;DHT22;13371;52.080;5.624;2022-07-30T14:47:03;29.60;55.20
25450;DHT22;13371;52.080;5.624;2022-07-30T14:49:28;29.80;56.20
25450;DHT22;13371;52.080;5.624;2022-07-30T14:51:54;29.70;54.20
25450;DHT22;13371;52.080;5.624;2022-07-30T14:54:20;29.70;54.80
25450;DHT22;13371;52.080;5.624;2022-07-30T14:56:47;29.40;53.90
25450;DHT22;13371;52.080;5.624;2022-07-30T14:59:13;29.40;56.00
25450;DHT22;13371;52.080;5.624;2022-07-30T15:01:38;29.60;55.20
25450;DHT22;13371;52.080;5.624;2022-07-30T15:04:06;29.70;55.10
25450;DHT22;13371;52.080;5.624;2022-07-30T15:06:34;29.50;54.80
25450;DHT22;13371;52.080;5.624;2022-07-30T15:08:59;29.70;55.50
25450;DHT22;13371;52.080;5.624;2022-07-30T15:11:25;29.80;55.30
25450;DHT22;13371;52.080;5.624;2022-07-30T15:13:50;29.60;54.80
25450;DHT22;13371;52.080;5.624;2022-07-30T15:16:17;29.70;56.30
25450;DHT22;13371;52.080;5.624;2022-07-30T15:18:43;29.90;54.50
25450;DHT22;13371;52.080;5.624;2022-07-30T15:21:09;29.30;54.50
25450;DHT22;13371;52.080;5.624;2022-07-30T15:23:35;29.00;55.70
25450;DHT22;13371;52.080;5.624;2022-07-30T15:26:00;29.30;57.80
25450;DHT22;13371;52.080;5.624;2022-07-30T15:28:26;29.50;56.20
25450;DHT22;13371;52.080;5.624;2022-07-30T15:30:52;29.10;56.10
25450;DHT22;13371;52.080;5.624;2022-07-30T15:33:17;29.20;58.60
25450;DHT22;13371;52.080;5.624;2022-07-30T15:35:43;29.50;57.10
25450;DHT22;13371;52.080;5.624;2022-07-30T15:38:08;29.60;56.80
25450;DHT22;13371;52.080;5.624;2022-07-30T15:40:34;29.70;56.80
25450;DHT22;13371;52.080;5.624;2022-07-30T15:42:59;29.50;55.50
25450;DHT22;13371;52.080;5.624;2022-07-30T15:45:25;29.40;54.60
25450;DHT22;13371;52.080;5.624;2022-07-30T15:47:51;29.20;57.40
25450;DHT22;13371;52.080;5.624;2022-07-30T15:50:16;29.40;56.60
25450;DHT22;13371;52.080;5.624;2022-07-30T15:52:42;29.30;57.00
25450;DHT22;13371;52.080;5.624;2022-07-30T15:55:09;29.60;56.20
25450;DHT22;13371;52.080;5.624;2022-07-30T15:57:35;29.70;54.80
25450;DHT22;13371;52.080;5.624;2022-07-30T16:00:02;29.50;54.50
25450;DHT22;13371;52.080;5.624;2022-07-30T16:02:28;29.20;55.30